Latest Coastal Weather Observations for Maatsuyker Island

IDT60701

Issued at 11:35 am EST Friday 25 July 2014 (issued every 10 minutes, with the page automatically refreshed every 10 minutes)

About coastal observations | Map of coastal stations | Coastal observations for TAS | Marine services | Other Formats
Station Details ID: 094041 Name: MAATSUYKER ISLAND LIGHTHOUSE Lat: -43.66 Lon: 146.27 Height: 146.5 m
Data from the previous 72 hours. | See also: Recent months at Maatsuyker Island
Date/Time
EST
Temp

°C
Wind Pressure Rain
since 9am
mm
Weather Cloud Vis
km
Sea
Height
m
Swell
Dir
 
Speed
knots
Gust
knots
hPa Trend Height
m
Period
s
Dir
25/11:30am 14.3 N 3 6 1016.8 - 0.0 - - - - - - -
25/11:00am 13.7 N 7 9 1017.0 - 0.0 - - - - - - -
25/10:30am 12.9 N 7 10 1017.1 - 0.0 - - - - - - -
25/10:00am 12.4 N 6 7 1017.1 - 0.0 - - - - - - -
25/09:30am 11.5 N 8 11 1017.1 - 0.0 - - - - - - -
25/09:00am 11.2 N 3 13 1017.2 R 0.0 Fine Mostly cloudy 25 <0.1 2.5 12 SW
25/08:30am 9.6 N 9 10 1016.8 - 0.0 - - - - - - -
25/08:00am 10.2 N 7 9 1016.4 - 0.0 - - - - - - -
25/07:30am 11.1 N 10 11 1016.1 - 0.0 - - - - - - -
25/07:00am 10.5 NE 8 9 1016.0 - 0.0 - - - - - - -
25/06:30am 12.1 ENE 7 12 1015.9 - 0.0 - - - - - - -
25/06:00am 11.6 NE 3 9 1015.7 F 0.0 Fine Mostly clear 25 <0.1 2.0 12 SW
25/05:30am 10.6 NNE 2 5 1015.4 - 0.0 - - - - - - -
25/05:00am 10.4 NNE 4 8 1015.7 - 0.0 - - - - - - -
25/04:30am 10.5 NNE 4 8 1015.8 - 0.0 - - - - - - -
25/04:00am 11.1 ENE 5 8 1015.8 - 0.0 - - - - - - -
25/03:30am 10.2 NNE 8 11 1015.9 - 0.0 - - - - - - -
25/03:00am 10.0 N 9 11 1016.4 - 0.0 - - - - - - -
25/02:30am 9.6 N 7 10 1016.4 - 0.0 - - - - - - -
25/02:00am 9.6 N 9 11 1016.4 - 0.0 - - - - - - -
25/01:30am 9.4 N 8 10 1016.4 - 0.0 - - - - - - -
25/12:00am 9.1 NNE 7 9 1017.1 - 0.0 - - - - - - -
 
Date/Time
EST
Temp

°C
Wind Pressure Rain
since 9am
mm
Weather Cloud Vis
km
Sea
Height
m
Swell
Dir
 
Speed
knots
Gust
knots
hPa Trend Height
m
Period
s
Dir
24/11:30pm 9.2 NNE 6 8 1017.0 - 0.0 - - - - - - -
24/11:00pm 8.8 N 6 7 1017.1 - 0.0 - - - - - - -
24/10:30pm 9.2 NNE 1 5 1017.0 - 0.0 - - - - - - -
24/10:00pm 8.9 N 2 4 1017.3 - 0.0 - - - - - - -
24/09:30pm 8.8 N 4 5 1017.3 - 0.0 - - - - - - -
24/09:00pm 8.9 N 4 5 1017.4 - 0.0 - - - - - - -
24/08:30pm 9.4 N 7 8 1017.2 - 0.0 - - - - - - -
24/08:00pm 9.0 N 4 5 1017.1 - 0.0 - - - - - - -
24/07:30pm 9.4 N 7 7 1016.9 - 0.0 - - - - - - -
24/07:00pm 9.3 NNW 6 7 1016.9 - 0.0 - - - - - - -
24/06:30pm 9.4 NNW 6 7 1016.9 - 0.0 - - - - - - -
24/06:00pm 9.5 NNW 6 7 1017.2 - 0.0 - - - - - - -
24/05:30pm 9.6 NW 5 6 1016.9 - 0.0 - - - - - - -
24/05:00pm 9.8 NW 4 5 1017.0 - 0.0 - - - - - - -
24/04:30pm 10.1 W 3 5 1016.9 - 0.0 - - - - - - -
24/04:00pm 10.7 W 4 5 1016.9 - 0.0 - - - - - - -
24/03:30pm 10.3 W 5 6 1017.0 - 0.0 - - - - - - -
24/03:00pm 11.5 NE 2 6 1017.1 F 0.0 Haze Mostly cloudy 25 <0.1 2.0 12 SW
24/02:30pm 11.0 NE 1 5 1016.8 - 0.0 - - - - - - -
24/02:00pm 11.1 NE 2 4 1016.8 - 0.0 - - - - - - -
24/01:30pm 11.0 ENE 3 5 1017.0 - 0.0 - - - - - - -
24/01:00pm 11.6 NNE 1 3 1017.4 - 0.0 - - - - - - -
24/12:30pm 11.3 NE 1 5 1017.8 - 0.0 - - - - - - -
24/12:00pm 11.0 ENE 2 5 1018.4 - 0.0 - - - - - - -
24/11:30am 10.7 CALM 0 3 1018.5 - 0.0 - - - - - - -
24/11:00am 10.7 CALM 0 3 1018.8 - 0.0 - - - - - - -
24/10:30am 9.6 CALM 0 4 1019.0 - 0.0 - - - - - - -
24/10:00am 9.1 NNW 2 5 1019.0 - 0.0 - - - - - - -
24/09:30am 9.0 NE 3 5 1019.0 - 0.0 - - - - - - -
24/09:00am 8.8 NW 2 5 1019.0 F 0.2 Fine Mostly cloudy 25 <0.1 2.5 12 SW
24/08:30am 8.9 N 3 8 1018.6 - 0.2 - - - - - - -
24/08:00am 8.6 N 2 5 1018.6 - 0.2 - - - - - - -
24/07:30am 8.5 CALM 0 3 1018.7 - 0.2 - - - - - - -
24/07:00am 8.4 CALM 0 3 1018.8 - 0.2 - - - - - - -
24/06:30am 8.7 NE 3 5 1018.7 - 0.2 - - - - - - -
24/06:00am 8.7 NNE 2 0 1018.8 F 0.2 Fine Clear 25 <0.1 2.5 14 SW
24/05:30am 8.8 NNE 1 3 1018.4 - 0.2 - - - - - - -
24/05:00am 8.7 CALM 0 0 1018.5 - 0.2 - - - - - - -
24/04:30am 9.1 CALM 0 2 1018.5 - 0.2 - - - - - - -
24/04:00am 9.1 CALM 0 0 1018.5 - 0.2 - - - - - - -
24/03:30am 8.7 N 2 4 1018.6 - 0.2 - - - - - - -
24/03:00am 8.9 N 0 5 1019.1 - 0.2 - - - - - - -
24/02:30am 8.4 N 1 4 1019.1 - 0.2 - - - - - - -
24/02:00am 8.3 N 5 7 1019.1 - 0.2 - - - - - - -
24/01:30am 8.4 N 4 5 1019.0 - 0.2 - - - - - - -
24/01:00am 8.2 N 5 6 1019.1 - 0.2 - - - - - - -
24/12:30am 8.3 N 5 8 1019.3 - 0.2 - - - - - - -
24/12:00am 8.5 N 6 7 1019.9 - 0.2 - - - - - - -
 
Date/Time
EST
Temp

°C
Wind Pressure Rain
since 9am
mm
Weather Cloud Vis
km
Sea
Height
m
Swell
Dir
 
Speed
knots
Gust
knots
hPa Trend Height
m
Period
s
Dir
23/11:30pm 9.2 N 8 9 1019.9 - 0.2 - - - - - - -
23/11:00pm 9.3 N 8 9 1020.1 - 0.2 - - - - - - -
23/10:30pm 9.5 N 7 9 1020.1 - 0.2 - - - - - - -
23/10:00pm 9.7 N 8 9 1020.2 - 0.2 - - - - - - -
23/09:30pm 9.6 N 9 10 1020.5 - 0.2 - - - - - - -
23/09:00pm 9.5 N 9 10 1021.0 - 0.2 - - - - - - -
23/08:30pm 9.7 N 8 9 1020.7 - 0.2 - - - - - - -
23/08:00pm 9.7 N 8 10 1020.6 - 0.2 - - - - - - -
23/07:30pm 10.0 NNW 7 10 1020.7 - 0.2 - - - - - - -
23/07:00pm 9.9 NNW 8 10 1020.6 - 0.2 - - - - - - -
23/06:30pm 10.0 NNW 8 11 1020.6 - 0.2 - - - - - - -
23/06:00pm 10.4 NNW 9 13 1020.9 - 0.2 - - - - - - -
23/05:30pm 10.5 NNW 10 13 1020.5 - 0.2 - - - - - - -
23/05:00pm 10.2 NNW 9 11 1020.6 - 0.2 - - - - - - -
23/04:30pm 9.9 NNW 8 10 1020.6 - 0.2 - - - - - - -
23/04:00pm 10.6 NNW 11 14 1020.6 - 0.0 - - - - - - -
23/03:30pm 10.7 NNW 11 14 1020.5 - 0.0 - - - - - - -
23/03:00pm 10.9 NNW 5 14 1020.8 F 0.0 Distant precip. Mostly cloudy 25 <0.5 3.0 15 SW
23/02:30pm 10.8 NNW 11 14 1020.4 - 0.0 - - - - - - -
23/02:00pm 11.1 NNW 11 14 1020.5 - 0.0 - - - - - - -
23/01:30pm 11.2 NW 10 13 1020.8 - 0.0 - - - - - - -
23/01:00pm 10.9 NNW 9 12 1021.3 - 0.0 - - - - - - -
23/12:30pm 10.6 NW 9 12 1021.7 - 0.0 - - - - - - -
23/12:00pm 10.4 NNW 9 12 1022.5 - 0.0 - - - - - - -
23/11:30am 10.8 NNW 9 13 1022.6 - 0.0 - - - - - - -
23/11:00am 10.4 N 10 13 1022.9 - 0.0 - - - - - - -
23/10:30am 10.8 NNW 11 13 1023.0 - 0.0 - - - - - - -
23/10:00am 10.4 NNW 11 14 1023.1 - 0.0 - - - - - - -
23/09:30am 9.9 NW 10 14 1023.1 - 0.0 - - - - - - -
23/09:00am 9.3 NW 8 14 1023.5 F 9.8 Distant precip. Partly cloudy 25 <0.5 2.5 15 SW
23/08:30am 9.1 NNW 12 17 1023.1 - 9.8 - - - - - - -
23/08:00am 9.1 NNW 10 12 1023.0 - 9.8 - - - - - - -
23/07:30am 9.3 NNW 9 11 1023.1 - 9.8 - - - - - - -
23/07:00am 9.0 NNW 10 12 1023.0 - 9.8 - - - - - - -
23/06:30am 9.1 NW 14 17 1022.9 - 9.8 - - - - - - -
23/06:00am 8.9 NNW 8 14 1023.2 F 9.8 Distant precip. Partly cloudy 12 <0.5 2.5 12 SW
23/05:30am 9.3 NW 12 15 1022.8 - 9.6 - - - - - - -
23/05:00am 9.1 NW 10 13 1022.9 - 9.6 - - - - - - -
23/04:30am 9.2 NNW 12 16 1023.0 - 9.6 - - - - - - -
23/04:00am 9.4 NW 11 15 1023.0 - 9.6 - - - - - - -
23/03:30am 9.4 NW 12 15 1023.1 - 9.6 - - - - - - -
23/03:00am 9.1 NNW 11 14 1023.4 - 9.6 - - - - - - -
23/02:30am 9.3 NW 11 14 1023.1 - 9.6 - - - - - - -
23/02:00am 9.1 NNW 10 14 1023.2 - 9.6 - - - - - - -
23/01:30am 9.0 NNW 10 13 1023.1 - 9.6 - - - - - - -
23/01:00am 8.8 NNW 11 15 1023.1 - 9.6 - - - - - - -
23/12:30am 8.9 NNW 11 14 1023.5 - 9.6 - - - - - - -
23/12:00am 9.0 NNW 9 12 1023.8 - 9.6 - - - - - - -
 
Date/Time
EST
Temp

°C
Wind Pressure Rain
since 9am
mm
Weather Cloud Vis
km
Sea
Height
m
Swell
Dir
 
Speed
knots
Gust
knots
hPa Trend Height
m
Period
s
Dir
22/11:30pm 9.1 NNW 11 14 1023.7 - 9.6 - - - - - - -
22/11:00pm 9.3 NW 14 17 1023.8 - 9.6 - - - - - - -
22/10:30pm 9.2 NNW 12 15 1023.8 - 9.6 - - - - - - -
22/10:00pm 9.0 NW 13 17 1023.7 - 9.6 - - - - - - -
22/09:30pm 9.2 NNW 14 17 1023.7 - 8.4 - - - - - - -
22/09:00pm 9.3 NNW 11 14 1023.9 - 7.2 - - - - - - -
22/08:30pm 9.1 NNW 6 9 1023.8 - 7.2 - - - - - - -
22/08:00pm 8.5 WSW 1 4 1023.9 - 7.0 - - - - - - -
22/07:30pm 8.6 S 7 13 1024.0 - 5.4 - - - - - - -
22/07:00pm 9.6 NNW 11 15 1023.7 - 3.0 - - - - - - -
22/06:30pm 9.3 NNW 11 15 1023.3 - 2.4 - - - - - - -
22/06:00pm 9.6 NNW 11 16 1023.6 - 1.4 - - - - - - -
22/05:30pm 10.2 NNW 10 12 1023.3 - 0.0 - - - - - - -
22/05:00pm 10.2 NNW 11 14 1023.2 - 0.0 - - - - - - -
22/04:30pm 10.5 NNW 11 14 1023.0 - 0.0 - - - - - - -
22/04:00pm 10.9 NNW 12 14 1023.1 - 0.0 - - - - - - -
22/03:30pm 10.5 NNW 13 15 1023.1 - 0.0 - - - - - - -
22/03:00pm 10.5 NNW 8 15 1023.4 F 0.0 Distant precip. Mostly cloudy 20 <0.5 2.0 12 SW
22/02:30pm 10.5 NNW 12 16 1022.9 - 0.0 - - - - - - -
22/02:00pm 10.4 NNW 13 17 1023.0 - 0.0 - - - - - - -
22/01:30pm 10.5 NNW 15 19 1023.1 - 0.0 - - - - - - -
22/01:00pm 10.6 NNW 14 18 1023.5 - 0.0 - - - - - - -
22/12:30pm 9.9 NNW 12 15 1023.8 - 0.0 - - - - - - -
22/12:00pm 10.5 NNW 12 16 1024.5 - 0.0 - - - - - - -

Other Formats:

Comma delimited format used in spreadsheet applications
http://www.bom.gov.au/fwo/IDT60701/IDT60701.94962.axf

JavaScript Object Notation format (JSON) in row-major order
http://www.bom.gov.au/fwo/IDT60701/IDT60701.94962.json